createdAt,value
2017-06-26T00:00:40.799Z,98605
2017-06-26T00:03:08.867Z,98606
2017-06-26T00:05:36.938Z,98611
2017-06-26T00:08:05.010Z,98610
2017-06-26T00:10:33.098Z,98614
2017-06-26T00:13:01.179Z,98618
2017-06-26T00:15:29.246Z,98608
2017-06-26T00:17:57.321Z,98623
2017-06-26T00:20:25.393Z,98608
2017-06-26T00:22:53.468Z,98608
2017-06-26T00:25:21.535Z,98602
2017-06-26T00:27:49.606Z,98596
2017-06-26T00:30:17.678Z,98599
2017-06-26T00:32:45.750Z,98594
2017-06-26T00:35:13.824Z,98598
2017-06-26T00:37:41.899Z,98595
2017-06-26T00:40:09.981Z,98597
2017-06-26T00:42:38.049Z,98590
2017-06-26T00:45:06.125Z,98593
2017-06-26T00:47:34.963Z,98578
2017-06-26T00:50:03.043Z,98582
2017-06-26T00:52:31.115Z,98575
2017-06-26T00:54:59.193Z,98577
2017-06-26T00:57:27.258Z,98578
2017-06-26T00:59:55.399Z,98565
2017-06-26T01:02:23.485Z,98573
2017-06-26T01:04:51.542Z,98574
2017-06-26T01:07:20.392Z,98579
2017-06-26T01:09:48.467Z,98581
2017-06-26T01:12:16.555Z,98580
2017-06-26T01:14:44.630Z,98575
2017-06-26T01:17:12.812Z,98574
2017-06-26T01:19:41.655Z,98567
2017-06-26T01:22:10.488Z,98574
2017-06-26T01:24:39.328Z,98570
2017-06-26T01:27:07.396Z,98569
2017-06-26T01:29:35.840Z,98570
2017-06-26T01:32:03.904Z,98571
2017-06-26T01:34:32.746Z,98570
2017-06-26T01:37:00.815Z,98560
2017-06-26T01:39:28.899Z,98559
2017-06-26T01:41:57.059Z,98566
2017-06-26T01:44:25.142Z,98569
2017-06-26T01:46:53.219Z,98563
2017-06-26T01:49:21.306Z,98569
2017-06-26T01:51:49.370Z,98567
2017-06-26T01:54:17.443Z,98568
2017-06-26T01:56:45.520Z,98549
2017-06-26T01:59:13.589Z,98554
2017-06-26T02:01:41.663Z,98547
2017-06-26T02:04:09.735Z,98551
2017-06-26T02:06:37.815Z,98543
2017-06-26T02:09:05.875Z,98539
2017-06-26T02:11:33.971Z,98546
2017-06-26T02:14:02.049Z,98543
2017-06-26T02:16:30.127Z,98542
2017-06-26T02:18:58.195Z,98547
2017-06-26T02:21:26.259Z,98545
2017-06-26T02:23:54.340Z,98543
2017-06-26T02:26:22.412Z,98542
2017-06-26T02:28:50.487Z,98550
2017-06-26T02:31:18.546Z,98542
2017-06-26T02:33:46.627Z,98541
2017-06-26T02:36:14.837Z,98543
2017-06-26T02:38:43.343Z,98543
2017-06-26T02:41:11.508Z,98538
2017-06-26T02:43:39.611Z,98529
2017-06-26T02:46:07.676Z,98537
2017-06-26T02:48:35.828Z,98540
2017-06-26T02:51:03.902Z,98545
2017-06-26T02:53:31.978Z,98546
2017-06-26T02:56:00.059Z,98542
2017-06-26T02:58:28.134Z,98527
2017-06-26T03:00:56.217Z,98536
2017-06-26T03:03:24.287Z,98536
2017-06-26T03:05:52.386Z,98528
2017-06-26T03:08:20.458Z,98534
2017-06-26T03:10:48.536Z,98535
2017-06-26T03:13:17.370Z,98530
2017-06-26T03:15:45.444Z,98522
2017-06-26T03:18:13.524Z,98537
2017-06-26T03:20:41.591Z,98529
2017-06-26T03:23:09.699Z,98516
2017-06-26T03:25:37.758Z,98529
2017-06-26T03:28:05.847Z,98525
2017-06-26T03:30:33.921Z,98529
2017-06-26T03:33:01.999Z,98527
2017-06-26T03:35:30.063Z,98524
2017-06-26T03:37:58.203Z,98529
2017-06-26T03:40:26.283Z,98529
2017-06-26T03:42:54.351Z,98525
2017-06-26T03:45:22.434Z,98530
2017-06-26T03:47:50.507Z,98529
2017-06-26T03:50:18.595Z,98524
2017-06-26T03:52:46.672Z,98522
2017-06-26T03:55:14.752Z,98522
2017-06-26T03:57:43.343Z,98524
2017-06-26T04:00:12.205Z,98524
2017-06-26T04:02:40.275Z,98525
2017-06-26T04:05:08.351Z,98534
2017-06-26T04:07:36.431Z,98534
2017-06-26T04:10:04.504Z,98538
2017-06-26T04:12:32.583Z,98527
2017-06-26T04:15:00.665Z,98542
2017-06-26T04:17:28.735Z,98535
2017-06-26T04:19:56.806Z,98546
2017-06-26T04:22:24.891Z,98546
2017-06-26T04:24:53.723Z,98541
2017-06-26T04:27:21.816Z,98536
2017-06-26T04:29:49.889Z,98534
2017-06-26T04:32:17.963Z,98535
2017-06-26T04:34:46.048Z,98536
2017-06-26T04:37:14.131Z,98534
2017-06-26T04:39:42.203Z,98543
2017-06-26T04:42:10.303Z,98539
2017-06-26T04:44:38.399Z,98551
2017-06-26T04:47:06.470Z,98547
2017-06-26T04:49:34.546Z,98542
2017-06-26T04:52:02.625Z,98528
2017-06-26T04:54:30.690Z,98521
2017-06-26T04:56:58.787Z,98525
2017-06-26T04:59:26.855Z,98521
2017-06-26T05:01:54.938Z,98518
2017-06-26T05:04:23.012Z,98527
2017-06-26T05:06:51.107Z,98531
2017-06-26T05:09:19.983Z,98523
2017-06-26T05:11:48.858Z,98538
2017-06-26T05:14:16.935Z,98524
2017-06-26T05:16:45.008Z,98528
2017-06-26T05:19:13.087Z,98540
2017-06-26T05:21:41.167Z,98540
2017-06-26T05:24:09.242Z,98539
2017-06-26T05:26:37.308Z,98535
2017-06-26T05:29:05.391Z,98540
2017-06-26T05:31:33.592Z,98536
2017-06-26T05:34:02.445Z,98542
2017-06-26T05:36:30.518Z,98552
2017-06-26T05:38:58.591Z,98554
2017-06-26T05:41:26.671Z,98553
2017-06-26T05:43:54.731Z,98551
2017-06-26T05:46:22.811Z,98544
2017-06-26T05:48:50.883Z,98560
2017-06-26T05:51:18.963Z,98567
2017-06-26T05:53:47.800Z,98559
2017-06-26T05:56:15.879Z,98559
2017-06-26T05:58:43.965Z,98564
2017-06-26T06:01:12.284Z,98560
2017-06-26T06:03:41.115Z,98548
2017-06-26T06:06:09.187Z,98547
2017-06-26T06:08:37.259Z,98547
2017-06-26T06:11:05.331Z,98556
2017-06-26T06:13:33.403Z,98550
2017-06-26T06:16:01.475Z,98555
2017-06-26T06:18:29.815Z,98556
2017-06-26T06:20:57.883Z,98548
2017-06-26T06:23:25.979Z,98554
2017-06-26T06:25:54.051Z,98551
2017-06-26T06:28:22.129Z,98550
2017-06-26T06:30:50.203Z,98547
2017-06-26T06:33:18.271Z,98549
2017-06-26T06:35:46.352Z,98548
2017-06-26T06:38:14.426Z,98534
2017-06-26T06:40:42.526Z,98545
2017-06-26T06:43:10.587Z,98537
2017-06-26T06:45:38.690Z,98542
2017-06-26T06:48:06.742Z,98535
2017-06-26T06:50:34.819Z,98544
2017-06-26T06:53:02.887Z,98525
2017-06-26T06:55:31.179Z,98525
2017-06-26T06:57:59.255Z,98516
2017-06-26T07:00:27.329Z,98530
2017-06-26T07:02:55.655Z,98530
2017-06-26T07:05:23.715Z,98530
2017-06-26T07:07:51.799Z,98540
2017-06-26T07:10:19.862Z,98520
2017-06-26T07:12:47.932Z,98513
2017-06-26T07:15:15.999Z,98520
2017-06-26T07:17:44.842Z,98515
2017-06-26T07:20:12.917Z,98529
2017-06-26T07:22:40.987Z,98529
2017-06-26T07:25:09.066Z,98530
2017-06-26T07:27:37.131Z,98536
2017-06-26T07:30:05.254Z,98526
2017-06-26T07:32:33.456Z,98528
2017-06-26T07:35:01.527Z,98520
2017-06-26T07:37:29.627Z,98525
2017-06-26T07:39:57.849Z,98520
2017-06-26T07:42:26.696Z,98520
2017-06-26T07:44:54.822Z,98521
2017-06-26T07:47:22.898Z,98519
2017-06-26T07:49:50.957Z,98520
2017-06-26T07:52:19.047Z,98511
2017-06-26T07:54:47.107Z,98523
2017-06-26T07:57:15.175Z,98519
2017-06-26T07:59:43.242Z,98522
2017-06-26T08:02:12.070Z,98517
2017-06-26T08:04:40.143Z,98516
2017-06-26T08:07:08.456Z,98506
2017-06-26T08:09:36.544Z,98500
2017-06-26T08:12:05.379Z,98493
2017-06-26T08:14:33.455Z,98505
2017-06-26T08:17:01.531Z,98499
2017-06-26T08:19:29.615Z,98499
2017-06-26T08:21:57.687Z,98495
2017-06-26T08:24:25.841Z,98492
2017-06-26T08:26:53.920Z,98494
2017-06-26T08:29:21.988Z,98500
2017-06-26T08:31:50.066Z,98503
2017-06-26T08:34:18.131Z,98489
2017-06-26T08:36:46.212Z,98482
2017-06-26T08:39:14.275Z,98506
2017-06-26T08:41:42.414Z,98492
2017-06-26T08:44:11.466Z,98497
2017-06-26T08:46:39.532Z,98501
2017-06-26T08:49:07.611Z,98507
2017-06-26T08:51:35.685Z,98505
2017-06-26T08:54:03.763Z,98505
2017-06-26T08:56:31.831Z,98507
2017-06-26T08:58:59.903Z,98497
2017-06-26T09:01:28.114Z,98504
2017-06-26T09:03:56.966Z,98504
2017-06-26T09:06:25.036Z,98502
2017-06-26T09:08:53.127Z,98505
2017-06-26T09:11:21.342Z,98506
2017-06-26T09:13:49.399Z,98506
2017-06-26T09:16:17.474Z,98499
2017-06-26T09:18:45.565Z,98506
2017-06-26T09:21:13.631Z,98504
2017-06-26T09:23:41.695Z,98499
2017-06-26T09:26:10.539Z,98501
2017-06-26T09:28:38.611Z,98494
2017-06-26T09:31:06.687Z,98497
2017-06-26T09:33:34.747Z,98497
2017-06-26T09:36:02.843Z,98490
2017-06-26T09:38:30.914Z,98491
2017-06-26T09:40:58.986Z,98492
2017-06-26T09:43:27.062Z,98506
2017-06-26T09:45:55.130Z,98508
2017-06-26T09:48:23.445Z,98507
2017-06-26T09:50:51.509Z,98510
2017-06-26T09:53:20.357Z,98504
2017-06-26T09:55:48.428Z,98500
2017-06-26T09:58:16.504Z,98501
2017-06-26T10:00:44.682Z,98504
2017-06-26T10:03:12.763Z,98483
2017-06-26T10:05:40.835Z,98492
2017-06-26T10:08:08.926Z,98492
2017-06-26T10:10:37.772Z,98504
2017-06-26T10:13:05.838Z,98485
2017-06-26T10:15:33.924Z,98495
2017-06-26T10:18:02.004Z,98487
2017-06-26T10:20:30.099Z,98476
2017-06-26T10:22:58.208Z,98482
2017-06-26T10:25:26.298Z,98473
2017-06-26T10:27:54.367Z,98483
2017-06-26T10:30:22.443Z,98477
2017-06-26T10:32:50.514Z,98473
2017-06-26T10:35:18.615Z,98469
2017-06-26T10:37:46.691Z,98477
2017-06-26T10:40:14.776Z,98472
2017-06-26T10:42:42.984Z,98475
2017-06-26T10:45:11.053Z,98462
2017-06-26T10:47:39.136Z,98468
2017-06-26T10:50:07.210Z,98470
2017-06-26T10:52:35.296Z,98457
2017-06-26T10:55:03.371Z,98465
2017-06-26T10:57:31.448Z,98466
2017-06-26T10:59:59.527Z,98466
2017-06-26T11:02:27.611Z,98460
2017-06-26T11:04:55.683Z,98457
2017-06-26T11:07:23.758Z,98466
2017-06-26T11:09:51.847Z,98460
2017-06-26T11:12:19.923Z,98455
2017-06-26T11:14:47.998Z,98451
2017-06-26T11:17:16.071Z,98456
2017-06-26T11:19:44.137Z,98453
2017-06-26T11:22:12.203Z,98458
2017-06-26T11:24:40.307Z,98453
2017-06-26T11:27:08.367Z,98455
2017-06-26T11:29:37.199Z,98456
2017-06-26T11:32:05.273Z,98449
2017-06-26T11:34:33.658Z,98445
2017-06-26T11:37:01.739Z,98444
2017-06-26T11:39:29.809Z,98440
2017-06-26T11:41:57.891Z,98438
2017-06-26T11:44:25.967Z,98441
2017-06-26T11:46:54.043Z,98432
2017-06-26T11:49:22.113Z,98436
2017-06-26T11:51:50.195Z,98436
2017-06-26T11:54:18.275Z,98431
2017-06-26T11:56:46.356Z,98429
2017-06-26T11:59:14.434Z,98426
2017-06-26T12:01:43.330Z,98424
2017-06-26T12:04:12.440Z,98427
2017-06-26T12:06:40.496Z,98415
2017-06-26T12:09:08.571Z,98415
2017-06-26T12:11:37.408Z,98411
2017-06-26T12:14:05.538Z,98417
2017-06-26T12:16:33.595Z,98416
2017-06-26T12:19:01.667Z,98410
2017-06-26T12:21:30.503Z,98406
2017-06-26T12:23:58.681Z,98412
2017-06-26T12:26:26.750Z,98399
2017-06-26T12:28:55.007Z,98407
2017-06-26T12:31:23.114Z,98408
2017-06-26T12:33:51.189Z,98406
2017-06-26T12:36:19.267Z,98402
2017-06-26T12:38:47.344Z,98413
2017-06-26T12:41:15.446Z,98399
2017-06-26T12:43:43.508Z,98402
2017-06-26T12:46:11.587Z,98403
2017-06-26T12:48:39.658Z,98407
2017-06-26T12:51:07.722Z,98403
2017-06-26T12:53:35.791Z,98403
2017-06-26T12:56:03.866Z,98407
2017-06-26T12:58:31.946Z,98403
2017-06-26T13:01:00.048Z,98397
2017-06-26T13:03:28.128Z,98384
2017-06-26T13:05:56.192Z,98382
2017-06-26T13:08:24.272Z,98386
2017-06-26T13:10:52.334Z,98389
2017-06-26T13:13:20.420Z,98380
2017-06-26T13:15:48.490Z,98372
2017-06-26T13:18:16.560Z,98380
2017-06-26T13:20:45.443Z,98379
2017-06-26T13:23:13.503Z,98386
2017-06-26T13:25:41.822Z,98380
2017-06-26T13:28:09.926Z,98367
2017-06-26T13:30:38.108Z,98363
2017-06-26T13:33:06.178Z,98369
2017-06-26T13:35:34.262Z,98369
2017-06-26T13:38:03.122Z,98365
2017-06-26T13:40:31.184Z,98371
2017-06-26T13:42:59.262Z,98373
2017-06-26T13:45:27.343Z,98367
2017-06-26T13:47:55.422Z,98367
2017-06-26T13:50:23.492Z,98368
2017-06-26T13:52:51.563Z,98359
2017-06-26T13:55:19.647Z,98354
2017-06-26T13:57:47.751Z,98352
2017-06-26T14:00:15.817Z,98355
2017-06-26T14:02:43.891Z,98362
2017-06-26T14:05:11.970Z,98348
2017-06-26T14:07:40.053Z,98355
2017-06-26T14:10:08.225Z,98350
2017-06-26T14:12:36.287Z,98358
2017-06-26T14:15:04.358Z,98356
2017-06-26T14:17:32.468Z,98359
2017-06-26T14:20:00.543Z,98362
2017-06-26T14:22:28.636Z,98362
2017-06-26T14:24:56.778Z,98360
2017-06-26T14:27:24.851Z,98359
2017-06-26T14:29:52.934Z,98360
2017-06-26T14:32:21.019Z,98357
2017-06-26T14:34:49.095Z,98366
2017-06-26T14:37:17.240Z,98352
2017-06-26T14:39:45.467Z,98360
2017-06-26T14:42:13.550Z,98359
2017-06-26T14:44:41.619Z,98361
2017-06-26T14:47:10.456Z,98355
2017-06-26T14:49:38.532Z,98356
2017-06-26T14:52:06.628Z,98360
2017-06-26T14:54:34.704Z,98362
2017-06-26T14:57:02.855Z,98361
2017-06-26T14:59:30.948Z,98354
2017-06-26T15:01:59.017Z,98351
2017-06-26T15:04:27.082Z,98354
2017-06-26T15:06:55.159Z,98361
2017-06-26T15:09:23.239Z,98358
2017-06-26T15:11:51.329Z,98358
2017-06-26T15:14:19.399Z,98355
2017-06-26T15:16:47.470Z,98347
2017-06-26T15:19:15.531Z,98353
2017-06-26T15:21:43.612Z,98343
2017-06-26T15:24:11.679Z,98334
2017-06-26T15:26:39.750Z,98335
2017-06-26T15:29:07.839Z,98334
2017-06-26T15:31:35.907Z,98338
2017-06-26T15:34:04.759Z,98337
2017-06-26T15:36:32.850Z,98329
2017-06-26T15:39:00.956Z,98324
2017-06-26T15:41:29.811Z,98322
2017-06-26T15:43:57.875Z,98322
2017-06-26T15:46:25.958Z,98314
2017-06-26T15:48:54.023Z,98310
2017-06-26T15:51:22.390Z,98307
2017-06-26T15:53:50.467Z,98306
2017-06-26T15:56:18.536Z,98318
2017-06-26T15:58:46.612Z,98311
2017-06-26T16:01:14.691Z,98316
2017-06-26T16:03:42.770Z,98314
2017-06-26T16:06:10.852Z,98312
2017-06-26T16:08:38.958Z,98314
2017-06-26T16:11:07.032Z,98319
2017-06-26T16:13:35.859Z,98316
2017-06-26T16:16:03.949Z,98317
2017-06-26T16:18:32.022Z,98314
2017-06-26T16:21:00.290Z,98312
2017-06-26T16:23:28.367Z,98305
2017-06-26T16:25:56.466Z,98300
2017-06-26T16:28:24.542Z,98304
2017-06-26T16:30:53.421Z,98302
2017-06-26T16:33:21.503Z,98299
2017-06-26T16:35:49.591Z,98305
2017-06-26T16:38:17.746Z,98307
2017-06-26T16:40:45.815Z,98307
2017-06-26T16:43:13.891Z,98307
2017-06-26T16:45:41.960Z,98311
2017-06-26T16:48:10.041Z,98307
2017-06-26T16:50:38.107Z,98316
2017-06-26T16:53:06.191Z,98303
2017-06-26T16:55:35.027Z,98302
2017-06-26T16:58:03.108Z,98302
2017-06-26T17:00:31.221Z,98321
2017-06-26T17:03:00.070Z,98313
2017-06-26T17:05:28.156Z,98305
2017-06-26T17:07:56.223Z,98314
2017-06-26T17:10:24.315Z,98308
2017-06-26T17:12:52.396Z,98314
2017-06-26T17:15:20.468Z,98313
2017-06-26T17:17:48.543Z,98306
2017-06-26T17:20:16.636Z,98318
2017-06-26T17:22:45.475Z,98302
2017-06-26T17:25:13.573Z,98304
2017-06-26T17:27:41.651Z,98302
2017-06-26T17:30:09.715Z,98301
2017-06-26T17:32:37.795Z,98298
2017-06-26T17:35:06.673Z,98299
2017-06-26T17:37:34.779Z,98306
2017-06-26T17:40:02.848Z,98306
2017-06-26T17:42:30.922Z,98299
2017-06-26T17:44:59.059Z,98305
2017-06-26T17:47:27.146Z,98302
2017-06-26T17:49:55.220Z,98297
2017-06-26T17:52:23.283Z,98298
2017-06-26T17:54:51.361Z,98302
2017-06-26T17:57:19.436Z,98308
2017-06-26T17:59:47.513Z,98311
2017-06-26T18:02:15.574Z,98316
2017-06-26T18:04:43.658Z,98317
2017-06-26T18:07:12.537Z,98311
2017-06-26T18:09:40.608Z,98306
2017-06-26T18:12:08.819Z,98306
2017-06-26T18:14:36.915Z,98306
2017-06-26T18:17:04.987Z,98323
2017-06-26T18:19:33.064Z,98315
2017-06-26T18:22:01.147Z,98315
2017-06-26T18:24:29.210Z,98322
2017-06-26T18:26:57.286Z,98335
2017-06-26T18:29:25.353Z,98346
2017-06-26T18:31:53.831Z,98335
2017-06-26T18:34:21.902Z,98333
2017-06-26T18:36:49.979Z,98332
2017-06-26T18:39:18.054Z,98340
2017-06-26T18:41:46.139Z,98331
2017-06-26T18:44:14.205Z,98338
2017-06-26T18:46:42.279Z,98338
2017-06-26T18:49:10.364Z,98338
2017-06-26T18:51:38.493Z,98337
2017-06-26T18:54:06.587Z,98336
2017-06-26T18:56:34.659Z,98347
2017-06-26T18:59:02.731Z,98348
2017-06-26T19:01:31.004Z,98349
2017-06-26T19:03:59.078Z,98347
2017-06-26T19:06:27.152Z,98358
2017-06-26T19:08:55.248Z,98345
2017-06-26T19:11:23.347Z,98352
2017-06-26T19:13:52.186Z,98354
2017-06-26T19:16:20.277Z,98360
2017-06-26T19:18:48.349Z,98358
2017-06-26T19:21:16.427Z,98355
2017-06-26T19:23:44.531Z,98364
2017-06-26T19:26:14.230Z,98367
2017-06-26T19:28:42.311Z,98368
2017-06-26T19:31:10.379Z,98365
2017-06-26T19:33:38.478Z,98364
2017-06-26T19:36:06.586Z,98363
2017-06-26T19:38:34.675Z,98372
2017-06-26T19:41:02.747Z,98381
2017-06-26T19:43:30.836Z,98373
2017-06-26T19:45:58.916Z,98381
2017-06-26T19:48:26.997Z,98374
2017-06-26T19:50:55.090Z,98361
2017-06-26T19:53:23.159Z,98359
2017-06-26T19:55:51.239Z,98353
2017-06-26T19:58:19.309Z,98352
2017-06-26T20:00:47.371Z,98359
2017-06-26T20:03:15.475Z,98356
2017-06-26T20:05:43.571Z,98362
2017-06-26T20:08:11.638Z,98365
2017-06-26T20:10:39.728Z,98368
2017-06-26T20:13:07.787Z,98369
2017-06-26T20:15:35.863Z,98371
2017-06-26T20:18:03.935Z,98367
2017-06-26T20:20:32.006Z,98360
2017-06-26T20:23:00.108Z,98360
2017-06-26T20:25:28.968Z,98369
2017-06-26T20:27:57.039Z,98370
2017-06-26T20:30:25.111Z,98381
2017-06-26T20:32:53.192Z,98374
2017-06-26T20:35:21.288Z,98379
2017-06-26T20:37:49.361Z,98372
2017-06-26T20:40:18.204Z,98365
2017-06-26T20:42:46.282Z,98374
2017-06-26T20:45:14.352Z,98377
2017-06-26T20:47:42.434Z,98386
2017-06-26T20:50:10.507Z,98389
2017-06-26T20:52:38.595Z,98390
2017-06-26T20:55:06.672Z,98388
2017-06-26T20:57:34.762Z,98397
2017-06-26T21:00:02.834Z,98397
2017-06-26T21:02:31.704Z,98402
2017-06-26T21:05:00.891Z,98399
2017-06-26T21:07:28.959Z,98402
2017-06-26T21:09:57.037Z,98403
2017-06-26T21:12:25.102Z,98409
2017-06-26T21:14:53.179Z,98401
2017-06-26T21:17:21.259Z,98401
2017-06-26T21:19:49.504Z,98407
2017-06-26T21:22:17.581Z,98414
2017-06-26T21:24:45.680Z,98417
2017-06-26T21:27:13.747Z,98420
2017-06-26T21:29:41.825Z,98420
2017-06-26T21:32:10.009Z,98415
2017-06-26T21:34:38.699Z,98405
2017-06-26T21:37:06.776Z,98402
2017-06-26T21:39:34.847Z,98409
2017-06-26T21:42:02.952Z,98410
2017-06-26T21:44:31.461Z,98415
2017-06-26T21:46:59.567Z,98424
2017-06-26T21:49:27.643Z,98424
2017-06-26T21:51:55.865Z,98416
2017-06-26T21:54:23.949Z,98412
2017-06-26T21:56:52.030Z,98420
2017-06-26T21:59:20.121Z,98424
2017-06-26T22:01:48.200Z,98436
2017-06-26T22:04:16.316Z,98430
2017-06-26T22:06:44.395Z,98430
2017-06-26T22:09:12.465Z,98439
2017-06-26T22:11:40.529Z,98435
2017-06-26T22:14:08.629Z,98436
2017-06-26T22:16:36.703Z,98439
2017-06-26T22:19:04.772Z,98436
2017-06-26T22:21:32.847Z,98426
2017-06-26T22:24:00.916Z,98429
2017-06-26T22:29:26.423Z,98444
2017-06-26T22:31:54.502Z,98443
2017-06-26T22:34:22.566Z,98435
2017-06-26T22:36:50.643Z,98443
2017-06-26T22:39:18.702Z,98435
2017-06-26T22:41:47.550Z,98445
2017-06-26T22:44:15.627Z,98442
2017-06-26T22:46:43.694Z,98440
2017-06-26T22:49:11.766Z,98437
2017-06-26T22:51:39.845Z,98444
2017-06-26T22:54:07.926Z,98445
2017-06-26T22:56:35.990Z,98437
2017-06-26T22:59:04.059Z,98428
2017-06-26T23:01:32.132Z,98437
2017-06-26T23:04:00.202Z,98430
2017-06-26T23:06:28.274Z,98433
2017-06-26T23:08:56.353Z,98432
2017-06-26T23:11:24.422Z,98428
2017-06-26T23:13:52.491Z,98436
2017-06-26T23:16:20.584Z,98430
2017-06-26T23:18:48.651Z,98441
2017-06-26T23:21:16.946Z,98443
2017-06-26T23:23:45.779Z,98443
2017-06-26T23:26:13.854Z,98434
2017-06-26T23:28:41.931Z,98427
2017-06-26T23:31:10.000Z,98421
2017-06-26T23:33:38.077Z,98424
2017-06-26T23:36:06.142Z,98421
2017-06-26T23:38:34.213Z,98411
2017-06-26T23:41:02.288Z,98411
2017-06-26T23:43:30.363Z,98416
2017-06-26T23:45:58.435Z,98413
2017-06-26T23:48:26.507Z,98412
2017-06-26T23:50:54.579Z,98416
2017-06-26T23:53:22.670Z,98417
2017-06-26T23:55:50.749Z,98416
2017-06-26T23:58:18.814Z,98416
